createdAt,value
2018-07-31T00:02:21.733Z,2.80
2018-07-31T00:04:50.010Z,2.35
2018-07-31T00:07:18.292Z,2.35
2018-07-31T00:09:46.529Z,2.33
2018-07-31T00:12:14.979Z,2.60
2018-07-31T00:14:42.966Z,2.40
2018-07-31T00:17:11.219Z,2.25
2018-07-31T00:19:39.446Z,2.50
2018-07-31T00:22:07.724Z,2.15
2018-07-31T00:24:35.982Z,2.00
2018-07-31T00:27:04.388Z,2.00
2018-07-31T00:29:32.657Z,2.50
2018-07-31T00:32:00.929Z,1.90
2018-07-31T00:34:29.406Z,2.00
2018-07-31T00:36:57.671Z,2.50
2018-07-31T00:39:26.116Z,3.00
2018-07-31T00:41:54.402Z,2.22
2018-07-31T00:44:22.732Z,1.80
2018-07-31T00:46:50.997Z,1.90
2018-07-31T00:49:19.277Z,2.17
2018-07-31T00:51:47.589Z,1.95
2018-07-31T00:54:15.861Z,3.15
2018-07-31T00:56:44.131Z,3.20
2018-07-31T00:59:13.098Z,2.20
2018-07-31T01:01:41.377Z,2.00
2018-07-31T01:04:09.637Z,2.12
2018-07-31T01:06:41.825Z,2.20
2018-07-31T01:09:11.522Z,1.80
2018-07-31T01:11:40.316Z,2.10
2018-07-31T01:14:09.697Z,1.82
2018-07-31T01:16:39.177Z,2.02
2018-07-31T01:19:08.017Z,2.00
2018-07-31T01:21:36.388Z,2.00
2018-07-31T01:24:04.655Z,1.80
2018-07-31T01:26:32.902Z,2.02
2018-07-31T01:29:01.274Z,1.57
2018-07-31T01:31:29.537Z,2.05
2018-07-31T01:33:57.801Z,2.47
2018-07-31T01:36:26.065Z,1.70
2018-07-31T01:38:54.333Z,2.33
2018-07-31T01:41:22.600Z,1.95
2018-07-31T01:43:50.879Z,2.33
2018-07-31T01:46:19.163Z,2.27
2018-07-31T01:48:47.444Z,2.92
2018-07-31T01:51:15.726Z,2.05
2018-07-31T01:53:43.965Z,1.87
2018-07-31T01:56:12.845Z,1.98
2018-07-31T01:58:41.067Z,2.02
2018-07-31T02:01:09.337Z,2.40
2018-07-31T02:03:37.592Z,2.17
2018-07-31T02:06:05.855Z,2.02
2018-07-31T02:08:34.133Z,1.80
2018-07-31T02:11:02.393Z,2.05
2018-07-31T02:13:30.919Z,1.60
2018-07-31T02:15:59.156Z,2.10
2018-07-31T02:18:27.431Z,1.90
2018-07-31T02:20:55.716Z,2.37
2018-07-31T02:23:24.502Z,2.02
2018-07-31T02:25:52.803Z,2.10
2018-07-31T02:28:21.244Z,2.00
2018-07-31T02:30:49.367Z,2.08
2018-07-31T02:33:17.641Z,1.92
2018-07-31T02:35:45.922Z,2.10
2018-07-31T02:38:14.163Z,2.08
2018-07-31T02:40:42.449Z,2.10
2018-07-31T02:43:10.709Z,2.25
2018-07-31T02:45:38.975Z,2.10
2018-07-31T02:48:07.217Z,2.67
2018-07-31T02:50:35.561Z,1.92
2018-07-31T02:53:03.789Z,1.98
2018-07-31T02:55:32.058Z,2.12
2018-07-31T02:58:00.328Z,2.25
2018-07-31T03:00:28.597Z,2.00
2018-07-31T03:02:56.870Z,2.47
2018-07-31T03:05:25.129Z,2.25
2018-07-31T03:07:53.408Z,2.30
2018-07-31T03:10:21.997Z,1.85
2018-07-31T03:12:50.291Z,1.40
2018-07-31T03:15:18.604Z,1.87
2018-07-31T03:17:46.878Z,1.85
2018-07-31T03:20:18.156Z,2.55
2018-07-31T03:22:46.836Z,1.95
2018-07-31T03:25:15.117Z,1.80
2018-07-31T03:27:43.397Z,2.20
2018-07-31T03:30:12.687Z,2.10
2018-07-31T03:32:40.958Z,2.20
2018-07-31T03:35:09.216Z,2.20
2018-07-31T03:37:37.492Z,2.17
2018-07-31T03:40:05.919Z,2.50
2018-07-31T03:42:33.921Z,2.70
2018-07-31T03:45:02.200Z,2.83
2018-07-31T03:47:30.677Z,2.12
2018-07-31T03:49:58.981Z,2.55
2018-07-31T03:52:27.230Z,3.17
2018-07-31T03:54:55.628Z,2.95
2018-07-31T03:57:23.903Z,2.40
2018-07-31T03:59:52.155Z,2.83
2018-07-31T04:02:20.402Z,2.55
2018-07-31T04:04:48.651Z,2.60
2018-07-31T04:07:16.924Z,2.75
2018-07-31T04:09:45.209Z,2.67
2018-07-31T04:12:13.492Z,2.87
2018-07-31T04:14:41.732Z,3.05
2018-07-31T04:17:10.037Z,2.75
2018-07-31T04:19:38.259Z,3.20
2018-07-31T04:22:06.850Z,2.85
2018-07-31T04:24:35.112Z,3.17
2018-07-31T04:27:03.359Z,3.95
2018-07-31T04:29:31.350Z,3.92
2018-07-31T04:31:59.604Z,2.50
2018-07-31T04:34:27.893Z,3.20
2018-07-31T04:36:56.136Z,3.12
2018-07-31T04:39:24.420Z,2.90
2018-07-31T04:41:52.679Z,3.25
2018-07-31T04:44:20.932Z,3.15
2018-07-31T04:46:49.234Z,2.62
2018-07-31T04:49:17.570Z,3.22
2018-07-31T04:51:45.853Z,3.35
2018-07-31T04:54:14.133Z,2.95
2018-07-31T04:56:42.439Z,2.60
2018-07-31T04:59:10.704Z,2.55
2018-07-31T05:01:39.988Z,2.25
2018-07-31T05:04:08.228Z,2.75
2018-07-31T05:06:36.476Z,2.27
2018-07-31T05:09:08.218Z,2.85
2018-07-31T05:11:36.490Z,2.83
2018-07-31T05:14:04.968Z,2.72
2018-07-31T05:16:33.263Z,3.17
2018-07-31T05:19:01.523Z,2.40
2018-07-31T05:21:29.790Z,3.85
2018-07-31T05:23:58.084Z,2.42
2018-07-31T05:26:26.347Z,2.33
2018-07-31T05:28:54.622Z,2.95
2018-07-31T05:31:22.872Z,2.77
2018-07-31T05:33:51.188Z,2.70
2018-07-31T05:36:19.677Z,2.35
2018-07-31T05:38:47.995Z,3.92
2018-07-31T05:41:16.265Z,2.42
2018-07-31T05:43:44.628Z,4.50
2018-07-31T05:46:13.147Z,3.75
2018-07-31T05:48:41.405Z,2.72
2018-07-31T05:51:09.645Z,2.42
2018-07-31T05:53:37.907Z,2.75
2018-07-31T05:56:06.425Z,3.25
2018-07-31T05:58:34.831Z,2.95
2018-07-31T06:01:03.120Z,2.98
2018-07-31T06:03:31.482Z,2.17
2018-07-31T06:05:59.684Z,3.22
2018-07-31T06:08:28.170Z,2.62
2018-07-31T06:10:56.503Z,2.20
2018-07-31T06:13:24.845Z,2.67
2018-07-31T06:15:53.123Z,2.08
2018-07-31T06:18:21.425Z,2.50
2018-07-31T06:20:49.662Z,2.42
2018-07-31T06:23:17.976Z,3.27
2018-07-31T06:25:46.530Z,3.35
2018-07-31T06:28:14.805Z,2.70
2018-07-31T06:30:43.081Z,2.60
2018-07-31T06:33:11.357Z,2.95
2018-07-31T06:35:39.583Z,2.25
2018-07-31T06:38:07.890Z,3.20
2018-07-31T06:40:36.131Z,2.20
2018-07-31T06:43:04.442Z,2.30
2018-07-31T06:45:32.708Z,2.92
2018-07-31T06:48:00.961Z,1.95
2018-07-31T06:50:29.193Z,2.00
2018-07-31T06:52:57.461Z,2.08
2018-07-31T06:55:25.724Z,2.05
2018-07-31T06:57:53.962Z,2.65
2018-07-31T07:00:22.235Z,1.87
2018-07-31T07:02:50.558Z,1.87
2018-07-31T07:05:18.817Z,2.80
2018-07-31T07:07:47.093Z,2.90
2018-07-31T07:10:15.367Z,2.90
2018-07-31T07:12:43.609Z,2.15
2018-07-31T07:15:12.586Z,2.77
2018-07-31T07:17:41.192Z,3.12
2018-07-31T07:20:09.574Z,2.92
2018-07-31T07:22:37.846Z,3.00
2018-07-31T07:25:06.117Z,2.77
2018-07-31T07:27:34.421Z,3.83
2018-07-31T07:30:03.277Z,3.33
2018-07-31T07:32:31.546Z,3.83
2018-07-31T07:34:59.798Z,3.65
2018-07-31T07:37:28.101Z,4.20
2018-07-31T07:39:56.362Z,4.65
2018-07-31T07:42:24.621Z,4.08
2018-07-31T07:44:52.902Z,4.12
2018-07-31T07:47:21.216Z,6.35
2018-07-31T07:49:49.518Z,5.67
2018-07-31T07:52:17.836Z,4.05
2018-07-31T07:54:46.330Z,4.45
2018-07-31T07:57:14.689Z,4.33
2018-07-31T07:59:42.975Z,4.58
2018-07-31T08:02:12.393Z,3.60
2018-07-31T08:04:40.703Z,3.90
2018-07-31T08:07:08.928Z,4.37
2018-07-31T08:09:37.208Z,4.05
2018-07-31T08:12:05.509Z,4.03
2018-07-31T08:14:33.793Z,5.25
2018-07-31T08:17:02.133Z,3.65
2018-07-31T08:19:30.430Z,4.22
2018-07-31T08:21:58.750Z,3.33
2018-07-31T08:24:27.322Z,4.08
2018-07-31T08:26:55.580Z,3.45
2018-07-31T08:29:23.875Z,2.87
2018-07-31T08:31:52.189Z,2.77
2018-07-31T08:34:20.421Z,2.50
2018-07-31T08:36:48.737Z,1.55
2018-07-31T08:39:17.004Z,2.60
2018-07-31T08:41:45.334Z,1.75
2018-07-31T08:44:13.594Z,1.50
2018-07-31T08:46:41.884Z,1.05
2018-07-31T08:49:10.207Z,0.90
2018-07-31T08:51:38.528Z,1.07
2018-07-31T08:54:06.809Z,1.15
2018-07-31T08:56:35.375Z,0.88
2018-07-31T08:59:03.700Z,0.80
2018-07-31T09:01:31.996Z,0.90
2018-07-31T09:04:00.303Z,0.80
2018-07-31T09:06:28.357Z,0.72
2018-07-31T09:08:57.156Z,0.85
2018-07-31T09:11:25.421Z,1.00
2018-07-31T09:13:53.695Z,1.00
2018-07-31T09:16:21.974Z,0.70
2018-07-31T09:18:50.230Z,0.88
2018-07-31T09:21:18.512Z,1.37
2018-07-31T09:23:46.840Z,0.98
2018-07-31T09:26:15.168Z,0.95
2018-07-31T09:28:43.443Z,1.20
2018-07-31T09:31:13.211Z,0.90
2018-07-31T09:33:41.954Z,1.10
2018-07-31T09:36:11.159Z,1.02
2018-07-31T09:38:39.153Z,0.90
2018-07-31T09:41:07.560Z,0.90
2018-07-31T09:43:36.001Z,0.85
2018-07-31T09:46:04.260Z,1.00
2018-07-31T09:48:32.649Z,0.80
2018-07-31T09:51:01.084Z,0.82
2018-07-31T09:53:29.406Z,0.90
2018-07-31T09:55:57.683Z,0.70
2018-07-31T09:58:26.095Z,0.90
2018-07-31T10:00:59.801Z,1.00
2018-07-31T10:03:28.277Z,1.22
2018-07-31T10:05:56.579Z,1.25
2018-07-31T10:08:24.936Z,2.02
2018-07-31T10:10:54.462Z,3.50
2018-07-31T10:13:22.764Z,3.15
2018-07-31T10:15:51.161Z,2.50
2018-07-31T10:18:19.643Z,1.70
2018-07-31T10:20:47.867Z,2.42
2018-07-31T10:23:16.216Z,2.15
2018-07-31T10:25:44.534Z,2.10
2018-07-31T10:28:13.087Z,3.05
2018-07-31T10:30:41.407Z,2.45
2018-07-31T10:33:09.685Z,2.22
2018-07-31T10:35:38.095Z,2.80
2018-07-31T10:38:06.377Z,2.00
2018-07-31T10:40:34.741Z,2.00
2018-07-31T10:43:03.040Z,1.92
2018-07-31T10:45:31.306Z,2.10
2018-07-31T10:47:59.578Z,1.27
2018-07-31T10:50:27.897Z,1.57
2018-07-31T10:52:56.179Z,1.50
2018-07-31T10:55:24.439Z,1.40
2018-07-31T10:57:52.696Z,1.22
2018-07-31T11:00:21.069Z,1.52
2018-07-31T11:02:49.297Z,1.52
2018-07-31T11:05:17.578Z,2.20
2018-07-31T11:07:45.833Z,1.85
2018-07-31T11:10:14.266Z,1.40
2018-07-31T11:12:42.545Z,1.80
2018-07-31T11:15:10.871Z,1.87
2018-07-31T11:17:39.175Z,1.40
2018-07-31T11:20:07.426Z,1.75
2018-07-31T11:22:35.724Z,1.20
2018-07-31T11:25:04.650Z,1.42
2018-07-31T11:27:32.986Z,1.50
2018-07-31T11:30:01.236Z,2.10
2018-07-31T11:32:29.547Z,1.20
2018-07-31T11:34:57.811Z,1.82
2018-07-31T11:37:26.240Z,1.95
2018-07-31T11:39:55.056Z,1.37
2018-07-31T11:42:23.334Z,1.70
2018-07-31T11:44:51.630Z,1.37
2018-07-31T11:47:19.899Z,1.37
2018-07-31T11:49:48.230Z,1.30
2018-07-31T11:52:16.533Z,1.45
2018-07-31T11:54:44.838Z,1.67
2018-07-31T11:57:13.154Z,1.70
2018-07-31T11:59:41.465Z,1.47
2018-07-31T12:02:09.851Z,1.42
2018-07-31T12:04:38.145Z,1.52
2018-07-31T12:07:06.421Z,1.35
2018-07-31T12:09:34.695Z,1.30
2018-07-31T12:12:02.983Z,1.47
2018-07-31T12:14:31.022Z,1.10
2018-07-31T12:16:59.390Z,1.20
2018-07-31T12:19:27.694Z,1.50
2018-07-31T12:21:55.970Z,1.02
2018-07-31T12:24:24.274Z,1.40
2018-07-31T12:26:53.072Z,1.10
2018-07-31T12:29:21.377Z,1.40
2018-07-31T12:31:49.713Z,1.32
2018-07-31T12:34:18.035Z,1.15
2018-07-31T12:36:46.344Z,1.70
2018-07-31T12:39:14.638Z,1.42
2018-07-31T12:41:42.915Z,1.25
2018-07-31T12:44:11.284Z,1.37
2018-07-31T12:46:39.338Z,1.45
2018-07-31T12:49:07.674Z,1.37
2018-07-31T12:51:36.258Z,1.25
2018-07-31T12:54:04.571Z,0.70
2018-07-31T12:56:32.841Z,1.10
2018-07-31T12:59:01.135Z,0.98
2018-07-31T13:01:29.448Z,1.05
2018-07-31T13:03:57.783Z,0.55
2018-07-31T13:06:26.096Z,1.17
2018-07-31T13:08:54.364Z,1.27
2018-07-31T13:11:22.384Z,1.40
2018-07-31T13:13:50.637Z,0.70
2018-07-31T13:16:18.955Z,0.60
2018-07-31T13:18:47.291Z,1.22
2018-07-31T13:21:15.511Z,0.75
2018-07-31T13:23:43.784Z,0.72
2018-07-31T13:26:12.154Z,0.80
2018-07-31T13:28:40.445Z,1.32
2018-07-31T13:31:08.772Z,1.00
2018-07-31T13:33:37.107Z,0.93
2018-07-31T13:36:05.482Z,0.90
2018-07-31T13:38:33.773Z,1.00
2018-07-31T13:41:02.018Z,0.68
2018-07-31T13:43:30.320Z,1.00
2018-07-31T13:45:58.590Z,0.75
2018-07-31T13:48:26.873Z,1.12
2018-07-31T13:50:55.154Z,0.70
2018-07-31T13:53:23.566Z,0.95
2018-07-31T13:55:51.862Z,1.17
2018-07-31T13:58:20.184Z,0.75
2018-07-31T14:00:48.500Z,1.00
2018-07-31T14:03:16.767Z,0.93
2018-07-31T14:05:45.047Z,0.55
2018-07-31T14:08:13.349Z,0.60
2018-07-31T14:10:41.644Z,0.70
2018-07-31T14:13:09.949Z,0.80
2018-07-31T14:15:37.941Z,0.70
2018-07-31T14:18:06.213Z,0.60
2018-07-31T14:20:34.503Z,0.90
2018-07-31T14:23:02.776Z,0.65
2018-07-31T14:25:31.040Z,0.80
2018-07-31T14:27:59.305Z,0.57
2018-07-31T14:30:27.642Z,0.60
2018-07-31T14:32:55.977Z,0.80
2018-07-31T14:35:24.290Z,0.57
2018-07-31T14:37:52.594Z,0.80
2018-07-31T14:40:20.911Z,0.70
2018-07-31T14:42:49.274Z,0.60
2018-07-31T14:45:17.537Z,0.80
2018-07-31T14:47:45.797Z,0.75
2018-07-31T14:50:13.839Z,0.70
2018-07-31T14:52:42.138Z,0.78
2018-07-31T14:55:10.383Z,0.82
2018-07-31T14:57:39.618Z,0.75
2018-07-31T15:00:08.462Z,0.57
2018-07-31T15:02:36.792Z,0.70
2018-07-31T15:05:05.418Z,0.70
2018-07-31T15:07:34.284Z,0.65
2018-07-31T15:10:02.553Z,0.65
2018-07-31T15:12:30.877Z,0.72
2018-07-31T15:14:59.132Z,0.68
2018-07-31T15:17:27.448Z,0.53
2018-07-31T15:19:55.742Z,0.70
2018-07-31T15:22:24.719Z,0.70
2018-07-31T15:24:52.982Z,0.57
2018-07-31T15:27:21.243Z,0.60
2018-07-31T15:29:49.565Z,0.75
2018-07-31T15:32:17.570Z,0.40
2018-07-31T15:34:45.868Z,0.50
2018-07-31T15:37:14.160Z,0.40
2018-07-31T15:39:42.467Z,0.70
2018-07-31T15:42:10.755Z,0.53
2018-07-31T15:44:39.040Z,0.75
2018-07-31T15:47:07.353Z,0.90
2018-07-31T15:49:35.648Z,1.10
2018-07-31T15:52:04.039Z,0.82
2018-07-31T15:54:32.360Z,0.62
2018-07-31T15:57:00.639Z,0.62
2018-07-31T15:59:29.092Z,0.93
2018-07-31T16:01:57.173Z,0.62
2018-07-31T16:04:25.438Z,0.50
2018-07-31T16:06:53.748Z,0.65
2018-07-31T16:09:22.018Z,0.80
2018-07-31T16:11:50.290Z,0.65
2018-07-31T16:14:18.570Z,0.70
2018-07-31T16:16:46.834Z,1.00
2018-07-31T16:19:15.102Z,0.75
2018-07-31T16:21:50.057Z,0.60
2018-07-31T16:24:18.362Z,0.80
2018-07-31T16:26:46.604Z,0.85
2018-07-31T16:29:14.911Z,0.75
2018-07-31T16:31:43.216Z,0.80
2018-07-31T16:34:11.506Z,0.98
2018-07-31T16:36:39.560Z,0.85
2018-07-31T16:39:09.306Z,0.72
2018-07-31T16:41:37.600Z,0.57
2018-07-31T16:44:05.844Z,0.68
2018-07-31T16:46:34.175Z,0.85
2018-07-31T16:49:02.642Z,0.72
2018-07-31T16:51:30.935Z,1.10
2018-07-31T16:53:59.274Z,1.07
2018-07-31T16:56:27.560Z,0.93
2018-07-31T16:58:55.826Z,0.70
2018-07-31T17:01:24.104Z,0.65
2018-07-31T17:03:52.518Z,0.90
2018-07-31T17:06:20.827Z,1.00
2018-07-31T17:08:49.074Z,0.95
2018-07-31T17:11:17.381Z,1.00
2018-07-31T17:13:45.664Z,0.90
2018-07-31T17:16:13.936Z,1.10
2018-07-31T17:18:42.189Z,0.95
2018-07-31T17:21:10.514Z,0.78
2018-07-31T17:23:38.773Z,0.88
2018-07-31T17:26:07.067Z,0.80
2018-07-31T17:28:35.370Z,0.60
2018-07-31T17:31:03.600Z,0.60
2018-07-31T17:33:31.878Z,0.70
2018-07-31T17:36:00.148Z,0.50
2018-07-31T17:38:28.657Z,0.70
2018-07-31T17:40:56.936Z,1.00
2018-07-31T17:43:25.240Z,0.75
2018-07-31T17:45:53.482Z,1.15
2018-07-31T17:48:22.322Z,1.20
2018-07-31T17:50:50.610Z,1.20
2018-07-31T17:53:18.890Z,0.78
2018-07-31T17:55:47.145Z,1.05
2018-07-31T17:58:15.484Z,0.90
2018-07-31T18:00:43.732Z,0.90
2018-07-31T18:03:13.045Z,1.10
2018-07-31T18:05:41.397Z,1.22
2018-07-31T18:08:09.638Z,0.95
2018-07-31T18:10:37.902Z,1.07
2018-07-31T18:13:06.504Z,1.00
2018-07-31T18:15:34.793Z,1.10
2018-07-31T18:18:03.244Z,1.15
2018-07-31T18:20:31.525Z,1.30
2018-07-31T18:22:59.826Z,1.00
2018-07-31T18:25:28.087Z,1.00
2018-07-31T18:27:56.386Z,1.20
2018-07-31T18:30:24.705Z,1.27
2018-07-31T18:32:53.069Z,0.82
2018-07-31T18:35:21.337Z,0.88
2018-07-31T18:37:49.843Z,1.10
2018-07-31T18:40:18.167Z,1.57
2018-07-31T18:42:46.513Z,1.00
2018-07-31T18:45:14.836Z,1.27
2018-07-31T18:47:42.914Z,1.20
2018-07-31T18:50:11.239Z,0.88
2018-07-31T18:52:39.557Z,1.02
2018-07-31T18:55:07.883Z,1.02
2018-07-31T18:57:36.184Z,0.88
2018-07-31T19:00:05.199Z,1.00
2018-07-31T19:02:33.490Z,0.88
2018-07-31T19:05:01.767Z,0.78
2018-07-31T19:07:30.076Z,0.80
2018-07-31T19:09:58.357Z,1.17
2018-07-31T19:12:26.682Z,0.75
2018-07-31T19:14:55.011Z,0.57
2018-07-31T19:17:23.343Z,0.60
2018-07-31T19:19:51.667Z,1.00
2018-07-31T19:22:20.024Z,0.82
2018-07-31T19:24:48.373Z,0.80
2018-07-31T19:27:16.740Z,0.72
2018-07-31T19:29:45.083Z,0.82
2018-07-31T19:32:13.359Z,0.80
2018-07-31T19:34:41.649Z,0.90
2018-07-31T19:37:09.993Z,1.00
2018-07-31T19:39:38.296Z,0.72
2018-07-31T19:42:06.597Z,0.95
2018-07-31T19:44:34.868Z,0.98
2018-07-31T19:47:03.155Z,0.98
2018-07-31T19:49:31.692Z,0.90
2018-07-31T19:51:59.880Z,0.90
2018-07-31T19:54:28.180Z,1.12
2018-07-31T19:56:56.971Z,0.53
2018-07-31T19:59:25.300Z,1.25
2018-07-31T20:01:53.597Z,0.72
2018-07-31T20:04:21.976Z,1.20
2018-07-31T20:06:50.288Z,1.10
2018-07-31T20:09:24.911Z,1.00
2018-07-31T20:11:53.554Z,1.12
2018-07-31T20:14:22.209Z,0.98
2018-07-31T20:16:50.564Z,2.00
2018-07-31T20:19:19.290Z,1.15
2018-07-31T20:21:47.577Z,1.15
2018-07-31T20:24:15.881Z,0.80
2018-07-31T20:26:44.164Z,0.95
2018-07-31T20:29:12.436Z,1.22
2018-07-31T20:31:41.389Z,0.80
2018-07-31T20:34:09.877Z,1.05
2018-07-31T20:36:38.193Z,0.80
2018-07-31T20:39:07.897Z,1.50
2018-07-31T20:41:36.253Z,0.60
2018-07-31T20:44:04.491Z,1.20
2018-07-31T20:46:32.801Z,1.35
2018-07-31T20:49:01.037Z,1.77
2018-07-31T20:51:29.578Z,1.50
2018-07-31T20:53:57.835Z,2.55
2018-07-31T20:56:26.100Z,2.02
2018-07-31T20:58:54.478Z,2.25
2018-07-31T21:01:22.958Z,2.20
2018-07-31T21:03:51.266Z,2.40
2018-07-31T21:06:19.598Z,3.35
2018-07-31T21:08:47.861Z,2.72
2018-07-31T21:11:16.460Z,2.45
2018-07-31T21:13:44.756Z,2.47
2018-07-31T21:16:12.990Z,3.02
2018-07-31T21:18:41.294Z,4.40
2018-07-31T21:21:09.253Z,3.92
2018-07-31T21:23:37.561Z,3.35
2018-07-31T21:26:05.923Z,2.83
2018-07-31T21:28:34.232Z,3.50
2018-07-31T21:31:02.453Z,4.28
2018-07-31T21:33:30.687Z,4.62
2018-07-31T21:35:59.012Z,2.87
2018-07-31T21:38:27.310Z,3.45
2018-07-31T21:40:55.579Z,3.67
2018-07-31T21:43:23.851Z,3.05
2018-07-31T21:45:52.187Z,2.83
2018-07-31T21:48:20.420Z,2.75
2018-07-31T21:50:48.729Z,3.85
2018-07-31T21:53:17.011Z,3.05
2018-07-31T21:55:45.286Z,3.50
2018-07-31T21:58:13.562Z,2.27
2018-07-31T22:00:47.120Z,2.98
2018-07-31T22:03:15.379Z,2.17
2018-07-31T22:05:43.637Z,2.50
2018-07-31T22:08:11.936Z,3.47
2018-07-31T22:10:40.259Z,3.92
2018-07-31T22:13:08.486Z,4.05
2018-07-31T22:15:36.758Z,3.40
2018-07-31T22:18:05.007Z,3.12
2018-07-31T22:20:33.325Z,4.05
2018-07-31T22:23:01.690Z,3.22
2018-07-31T22:25:29.938Z,2.77
2018-07-31T22:27:58.267Z,3.33
2018-07-31T22:30:26.528Z,2.75
2018-07-31T22:32:54.852Z,3.30
2018-07-31T22:35:22.855Z,2.55
2018-07-31T22:37:51.105Z,3.55
2018-07-31T22:40:19.385Z,2.58
2018-07-31T22:42:47.702Z,2.40
2018-07-31T22:45:16.181Z,3.55
2018-07-31T22:47:44.499Z,3.60
2018-07-31T22:50:13.358Z,2.77
2018-07-31T22:52:41.787Z,2.25
2018-07-31T22:55:10.037Z,3.30
2018-07-31T22:57:38.376Z,2.95
2018-07-31T23:00:06.795Z,2.65
2018-07-31T23:02:35.045Z,3.33
2018-07-31T23:05:03.399Z,3.98
2018-07-31T23:07:31.679Z,3.52
2018-07-31T23:10:04.354Z,3.37
2018-07-31T23:12:33.247Z,3.85
2018-07-31T23:15:02.445Z,4.50
2018-07-31T23:17:31.274Z,4.00
2018-07-31T23:20:01.783Z,3.60
2018-07-31T23:22:48.484Z,4.70
2018-07-31T23:25:16.746Z,5.20
2018-07-31T23:27:45.030Z,5.50
2018-07-31T23:30:13.340Z,3.92
2018-07-31T23:32:42.038Z,5.42
2018-07-31T23:35:10.373Z,3.95
2018-07-31T23:37:38.687Z,3.72
2018-07-31T23:40:07.649Z,4.28
2018-07-31T23:42:35.938Z,4.33
2018-07-31T23:45:04.603Z,3.98
2018-07-31T23:47:32.869Z,3.70
2018-07-31T23:50:02.174Z,5.55
2018-07-31T23:52:30.645Z,5.70
2018-07-31T23:54:59.119Z,4.58
2018-07-31T23:57:27.420Z,4.35
2018-07-31T23:59:55.687Z,3.10
